Tourist.f.b.terzo — IQAQ — position and weather

sailwx.info

Track history (hours):
 
Tides and Currents Weather Stations Pressure Air Temp Water Temp Dewpoint Dewpoint Depression Visibility Wind Speed Wind Dir Waves Ship Positions

Tourist.f.b.terzo

Last reported at 2015-May-02 10:30 UTC. Time now 2015-May-03 17:51 UTC.
Position N 40°45' E 013°54'.

Length 53 m; draft 1.8 m.

Type: Ship. MMSI: 247048900.

Date/timePositionNaut miles runAvg speedWind from/ knotsBaromVisibWave heightAir tempDewpointWater temp
2015-May-02 10:30N 40°45' E 013°54'0 0.0
2015-May-02 09:33N 40°45' E 013°54'2 2.5
2015-May-02 08:34N 40°46' E 013°58'7 7.3
2015-May-02 07:33N 40°49' E 014°06'4 4.0
2015-May-02 06:34N 40°46' E 014°03'6 6.3
2015-May-02 05:33N 40°45' E 013°54'8 7.5
2015-May-02 04:33N 40°46' E 014°04'4 3.7
2015-May-02 03:33N 40°49' E 014°07'5 4.8
2015-May-02 02:33N 40°47' E 014°02'6 5.6
2015-May-02 01:33N 40°45' E 013°55'7 7.1
2015-May-02 00:33N 40°46' E 014°04'2 2.4
2015-May-01 23:32N 40°48' E 014°06'7 7.6
2015-May-01 22:33N 40°46' E 013°57'2 2.0
2015-May-01 21:34N 40°45' E 013°54'0 0.0
2015-May-01 15:34N 40°45' E 013°54'0 0.0
2015-May-01 11:16N 40°45' E 013°54'0 0.0
2015-May-01 10:33N 40°45' E 013°54'0 0.0
2015-May-01 09:33N 40°45' E 013°54'6 5.6
2015-May-01 08:33N 40°46' E 014°02'5 5.2
2015-May-01 07:33N 40°49' E 014°07'6 5.9
2015-May-01 06:33N 40°47' E 014°00'2 2.0
2015-May-01 05:34N 40°46' E 013°58'6 5.7
2015-May-01 04:33N 40°47' E 014°06'3 3.1
2015-May-01 03:33N 40°49' E 014°07'7 7.3
2015-May-01 02:34N 40°46' E 013°58'0 0.4
2015-May-01 01:33N 40°46' E 013°59'6 6.1
2015-May-01 00:32N 40°48' E 014°06'3 3.0
2015-Apr-30 23:33N 40°46' E 014°03'7 6.7
2015-Apr-30 22:34N 40°45' E 013°54'0 0.0
2015-Apr-30 18:08N 40°45' E 013°54'0 0.0
2015-Apr-30 17:34N 40°45' E 013°54'0 0.0
2015-Apr-30 13:18N 40°45' E 013°54'0 0.0
2015-Apr-30 12:33N 40°45' E 013°54'4 4.1
2015-Apr-30 11:33N 40°46' E 013°60'6 6.3
2015-Apr-30 10:33N 40°49' E 014°07'0 0.0
2015-Apr-30 09:33N 40°49' E 014°07'4 4.1
2015-Apr-30 08:33N 40°46' E 014°04'4 4.0
2015-Apr-30 07:33N 40°46' E 013°59'3 3.3
2015-Apr-30 06:33N 40°45' E 013°54'5 5.5
2015-Apr-30 05:33N 40°46' E 014°02'5 5.2
2015-Apr-30 04:33N 40°49' E 014°07'2 2.5
2015-Apr-30 03:34N 40°47' E 014°06'8 8.4
2015-Apr-30 02:33N 40°46' E 013°55'4 4.4
2015-Apr-30 01:33N 40°46' E 014°01'5 5.4
2015-Apr-30 00:32N 40°49' E 014°07'4 3.6
2015-Apr-29 23:33N 40°46' E 014°04'8 7.7
2015-Apr-29 22:33N 40°45' E 013°54'0 0.0
2015-Apr-29 18:33N 40°45' E 013°54'0 0.0
2015-Apr-29 17:34N 40°45' E 013°54'0 0.0
2015-Apr-29 16:34N 40°45' E 013°54'0 0.0
2015-Apr-29 15:34N 40°45' E 013°54'0 0.0
2015-Apr-29 14:34N 40°45' E 013°54'0 0.0
2015-Apr-29 13:33N 40°45' E 013°54'0 0.0
2015-Apr-29 12:33N 40°45' E 013°54'2 2.0
2015-Apr-29 11:34N 40°46' E 013°57'7 6.8
2015-Apr-29 10:34N 40°47' E 014°06'3 2.9
2015-Apr-29 09:33N 40°49' E 014°07'4 4.0
2015-Apr-29 08:34N 40°46' E 014°04'3 3.3
2015-Apr-29 07:34N 40°46' E 013°60'3 3.0
2015-Apr-29 06:33N 40°46' E 013°56'1 0.1
2015-Apr-28 12:07N 40°45' E 013°54'0 0.0
2015-Apr-28 11:33N 40°45' E 013°54'3 2.9
2015-Apr-28 10:33N 40°46' E 013°58'7 6.5
2015-Apr-28 09:32N 40°48' E 014°06'2 1.6
2015-Apr-28 08:33N 40°49' E 014°07'5 4.8
2015-Apr-28 07:33N 40°46' E 014°03'6 6.4
2015-Apr-28 06:33N 40°45' E 013°54'6 5.9
2015-Apr-28 05:33N 40°46' E 014°02'5 4.9
2015-Apr-28 04:33N 40°49' E 014°07'5 5.0
2015-Apr-28 03:32N 40°46' E 014°02'6 5.7
2015-Apr-28 02:33N 40°45' E 013°54'7 7.5
2015-Apr-28 01:34N 40°46' E 014°04'3 3.3
2015-Apr-28 00:31N 40°49' E 014°06'5 4.9
2015-Apr-27 23:34N 40°46' E 014°02'5 5.5
2015-Apr-27 22:33N 40°45' E 013°54'0 0.0
2015-Apr-27 21:33N 40°45' E 013°54'0 0.0
2015-Apr-27 20:32N 40°45' E 013°54'0 0.0
2015-Apr-27 19:33N 40°45' E 013°54'0 0.0
2015-Apr-27 18:33N 40°45' E 013°54'0 0.0
2015-Apr-27 17:33N 40°45' E 013°54'0 0.0
2015-Apr-27 16:33N 40°45' E 013°54'0 0.0
2015-Apr-27 15:33N 40°45' E 013°54'0 0.0
2015-Apr-27 14:33N 40°45' E 013°54'0 0.0
2015-Apr-27 13:33N 40°45' E 013°54'4 4.3
2015-Apr-27 12:33N 40°46' E 013°60'6 5.9
2015-Apr-27 11:30N 40°49' E 014°07'5 5.4
2015-Apr-27 10:33N 40°46' E 014°01'4 3.6
2015-Apr-27 09:33N 40°46' E 013°57'8 7.8
2015-Apr-27 08:33N 40°49' E 014°06'1 0.5
2015-Apr-27 07:33N 40°49' E 014°06'7 7.1
2015-Apr-27 06:34N 40°46' E 013°58'3 2.5
2015-Apr-27 05:33N 40°45' E 013°55'7 7.1
2015-Apr-27 04:33N 40°46' E 014°04'2 2.3
2015-Apr-27 03:31N 40°48' E 014°06'7 7.6
2015-Apr-27 02:33N 40°46' E 013°57'2 1.8
2015-Apr-27 01:33N 40°46' E 013°59'6 5.7
2015-Apr-27 00:33N 40°48' E 014°06'2 2.3
2015-Apr-26 23:33N 40°46' E 014°05'8 7.8
2015-Apr-26 22:33N 40°45' E 013°54'0 0.0
2015-Apr-26 21:33N 40°45' E 013°54'0 0.0
2015-Apr-26 20:33N 40°45' E 013°54'0 0.0
2015-Apr-26 19:32N 40°45' E 013°54'0 0.0
2015-Apr-26 18:34N 40°45' E 013°54'0 0.0
2015-Apr-26 17:33N 40°45' E 013°54'0 0.0
2015-Apr-26 16:33N 40°45' E 013°54'0 0.0
2015-Apr-26 15:33N 40°45' E 013°54'0 0.0
2015-Apr-26 14:33N 40°45' E 013°54'0 0.0
2015-Apr-26 13:33N 40°45' E 013°54'0 0.0
2015-Apr-26 12:34N 40°45' E 013°54'0 0.0
2015-Apr-26 11:33N 40°45' E 013°54'0 0.0
2015-Apr-26 10:33N 40°45' E 013°54'0 0.0
2015-Apr-26 09:33N 40°45' E 013°54'0 0.0
2015-Apr-26 08:33N 40°45' E 013°54'0 0.0
2015-Apr-26 07:33N 40°45' E 013°54'0 0.0
2015-Apr-26 06:33N 40°45' E 013°54'0 0.0
2015-Apr-26 05:33N 40°45' E 013°54'0 0.0
2015-Apr-26 04:33N 40°45' E 013°54'0 0.0
2015-Apr-26 03:33N 40°45' E 013°54'0 0.0
2015-Apr-26 02:34N 40°45' E 013°54'0 0.0
2015-Apr-26 01:32N 40°45' E 013°54'0 0.0
2015-Apr-26 00:33N 40°45' E 013°54'0 0.0
2015-Apr-25 23:33N 40°45' E 013°54'0 0.0
2015-Apr-25 22:33N 40°45' E 013°54'0 0.0
2015-Apr-25 21:33N 40°45' E 013°54'0 0.0
2015-Apr-25 20:33N 40°45' E 013°54'0 0.0
2015-Apr-25 19:33N 40°45' E 013°54'0 0.0
2015-Apr-25 18:33N 40°45' E 013°54'0 0.0
2015-Apr-25 17:33N 40°45' E 013°54'0 0.0
2015-Apr-25 16:34N 40°45' E 013°54'0 0.0
2015-Apr-25 15:33N 40°45' E 013°54'0 0.0
2015-Apr-25 14:33N 40°45' E 013°54'0 0.0
2015-Apr-25 13:33N 40°45' E 013°54'0 0.0
2015-Apr-25 12:33N 40°45' E 013°54'0 0.0
2015-Apr-25 11:33N 40°45' E 013°54'0 0.0
2015-Apr-25 10:33N 40°45' E 013°54'0 0.0
2015-Apr-25 09:33N 40°45' E 013°54'1 1.1
2015-Apr-25 08:33N 40°45' E 013°56'8 8.1
2015-Apr-25 07:33N 40°48' E 014°06'2 1.8
2015-Apr-25 06:33N 40°46' E 014°05'8 8.1
2015-Apr-25 05:33N 40°45' E 013°54'6 6.1
2015-Apr-25 04:33N 40°46' E 014°02'5 4.7
2015-Apr-25 03:33N 40°49' E 014°07'6 6.3
2015-Apr-25 02:33N 40°47' E 013°60'3 2.6
2015-Apr-25 01:33N 40°46' E 013°56'7 7.1
2015-Apr-25 00:33N 40°47' E 014°06'0 0.4
2015-Apr-24 23:32N 40°46' E 014°05'8 8.2
2015-Apr-24 22:33N 40°45' E 013°55'0 0.3
2015-Apr-24 21:33N 40°45' E 013°54'0 0.0
2015-Apr-24 20:32N 40°45' E 013°54'0 0.0
2015-Apr-24 19:33N 40°45' E 013°54'0 0.0
2015-Apr-24 18:33N 40°45' E 013°54'0 0.0
2015-Apr-24 17:33N 40°45' E 013°54'0 0.0
2015-Apr-24 16:33N 40°45' E 013°54'0 0.0
2015-Apr-24 15:33N 40°45' E 013°54'0 0.0
2015-Apr-24 14:33N 40°45' E 013°54'0 0.0
2015-Apr-24 13:33N 40°45' E 013°54'6 6.2
2015-Apr-24 12:33N 40°47' E 014°02'4 3.6
2015-Apr-24 11:33N 40°49' E 014°06'6 6.3
2015-Apr-24 10:33N 40°46' E 013°59'0 0.4
2015-Apr-24 09:33N 40°46' E 013°59'7 6.8
2015-Apr-24 08:33N 40°49' E 014°07'4 4.0
2015-Apr-24 07:33N 40°46' E 014°04'7 7.0
2015-Apr-24 06:33N 40°45' E 013°54'5 5.4
2015-Apr-24 05:33N 40°46' E 014°01'5 4.6
2015-Apr-24 04:33N 40°49' E 014°06'1 1.1
2015-Apr-24 03:32N 40°48' E 014°06'8 7.8
2015-Apr-24 02:33N 40°46' E 013°57'3 2.9
2015-Apr-24 01:33N 40°46' E 014°00'6 5.7
2015-Apr-24 00:33N 40°49' E 014°07'5 4.8
2015-Apr-23 23:32N 40°46' E 014°02'6 5.8
2015-Apr-23 22:33N 40°45' E 013°55'0 0.1
2015-Apr-23 21:33N 40°45' E 013°54'0 0.0
2015-Apr-23 20:33N 40°45' E 013°54'0 0.0
2015-Apr-23 19:30N 40°45' E 013°54'0 0.0
2015-Apr-23 18:33N 40°45' E 013°54'0 0.0
2015-Apr-23 17:33N 40°45' E 013°54'0 0.0
2015-Apr-23 16:33N 40°45' E 013°54'0 0.0
2015-Apr-23 15:33N 40°45' E 013°54'0 0.0
2015-Apr-23 14:33N 40°45' E 013°54'0 0.0
2015-Apr-23 13:33N 40°45' E 013°54'0 0.0
2015-Apr-23 12:34N 40°45' E 013°54'0 0.0
2015-Apr-23 11:33N 40°45' E 013°54'0 0.0
2015-Apr-23 10:33N 40°45' E 013°54'3 3.1
2015-Apr-23 09:33N 40°46' E 013°58'6 5.5
2015-Apr-23 08:33N 40°47' E 014°06'2 2.5
2015-Apr-23 07:33N 40°49' E 014°06'5 5.0
2015-Apr-23 06:33N 40°46' E 014°01'3 3.0
2015-Apr-23 05:33N 40°46' E 013°57'8 7.7
2015-Apr-23 04:33N 40°48' E 014°06'2 1.6
2015-Apr-23 03:33N 40°47' E 014°06'9 8.5
2015-Apr-23 02:33N 40°45' E 013°55'5 4.9
2015-Apr-23 01:33N 40°47' E 014°01'5 5.3
2015-Apr-23 00:34N 40°49' E 014°07'4 3.9
2015-Apr-22 23:33N 40°47' E 014°03'7 6.7
2015-Apr-22 22:33N 40°45' E 013°54'0 0.0
2015-Apr-22 13:07N 40°45' E 013°54'0 0.0
2015-Apr-22 12:33N 40°45' E 013°54'0 0.0
2015-Apr-22 11:33N 40°45' E 013°54'5 5.4
2015-Apr-22 10:33N 40°46' E 014°02'  
Track history (hours):
 
Tides and Currents Weather Stations Pressure Air Temp Water Temp Dewpoint Dewpoint Depression Visibility Wind Speed Wind Dir Waves Ship Positions

Tourist.f.b.terzo

Last reported at 2015-May-02 10:30 UTC. Time now 2015-May-03 17:51 UTC.
Position N 40°45' E 013°54'.

Length 53 m; draft 1.8 m.

Type: Ship. MMSI: 247048900.

Date/timePositionNaut miles runAvg speedWind from/ knotsBaromVisibWave heightAir tempDewpointWater temp
2015-May-02 10:30N 40°45' E 013°54'0 0.0
2015-May-02 09:33N 40°45' E 013°54'2 2.5
2015-May-02 08:34N 40°46' E 013°58'7 7.3
2015-May-02 07:33N 40°49' E 014°06'4 4.0
2015-May-02 06:34N 40°46' E 014°03'6 6.3
2015-May-02 05:33N 40°45' E 013°54'8 7.5
2015-May-02 04:33N 40°46' E 014°04'4 3.7
2015-May-02 03:33N 40°49' E 014°07'5 4.8
2015-May-02 02:33N 40°47' E 014°02'6 5.6
2015-May-02 01:33N 40°45' E 013°55'7 7.1
2015-May-02 00:33N 40°46' E 014°04'2 2.4
2015-May-01 23:32N 40°48' E 014°06'7 7.6
2015-May-01 22:33N 40°46' E 013°57'2 2.0
2015-May-01 21:34N 40°45' E 013°54'0 0.0
2015-May-01 15:34N 40°45' E 013°54'0 0.0
2015-May-01 11:16N 40°45' E 013°54'0 0.0
2015-May-01 10:33N 40°45' E 013°54'0 0.0
2015-May-01 09:33N 40°45' E 013°54'6 5.6
2015-May-01 08:33N 40°46' E 014°02'5 5.2
2015-May-01 07:33N 40°49' E 014°07'6 5.9
2015-May-01 06:33N 40°47' E 014°00'2 2.0
2015-May-01 05:34N 40°46' E 013°58'6 5.7
2015-May-01 04:33N 40°47' E 014°06'3 3.1
2015-May-01 03:33N 40°49' E 014°07'7 7.3
2015-May-01 02:34N 40°46' E 013°58'0 0.4
2015-May-01 01:33N 40°46' E 013°59'6 6.1
2015-May-01 00:32N 40°48' E 014°06'3 3.0
2015-Apr-30 23:33N 40°46' E 014°03'7 6.7
2015-Apr-30 22:34N 40°45' E 013°54'0 0.0
2015-Apr-30 18:08N 40°45' E 013°54'0 0.0
2015-Apr-30 17:34N 40°45' E 013°54'0 0.0
2015-Apr-30 13:18N 40°45' E 013°54'0 0.0
2015-Apr-30 12:33N 40°45' E 013°54'4 4.1
2015-Apr-30 11:33N 40°46' E 013°60'6 6.3
2015-Apr-30 10:33N 40°49' E 014°07'0 0.0
2015-Apr-30 09:33N 40°49' E 014°07'4 4.1
2015-Apr-30 08:33N 40°46' E 014°04'4 4.0
2015-Apr-30 07:33N 40°46' E 013°59'3 3.3
2015-Apr-30 06:33N 40°45' E 013°54'5 5.5
2015-Apr-30 05:33N 40°46' E 014°02'5 5.2
2015-Apr-30 04:33N 40°49' E 014°07'2 2.5
2015-Apr-30 03:34N 40°47' E 014°06'8 8.4
2015-Apr-30 02:33N 40°46' E 013°55'4 4.4
2015-Apr-30 01:33N 40°46' E 014°01'5 5.4
2015-Apr-30 00:32N 40°49' E 014°07'4 3.6
2015-Apr-29 23:33N 40°46' E 014°04'8 7.7
2015-Apr-29 22:33N 40°45' E 013°54'0 0.0
2015-Apr-29 18:33N 40°45' E 013°54'0 0.0
2015-Apr-29 17:34N 40°45' E 013°54'0 0.0
2015-Apr-29 16:34N 40°45' E 013°54'0 0.0
2015-Apr-29 15:34N 40°45' E 013°54'0 0.0
2015-Apr-29 14:34N 40°45' E 013°54'0 0.0
2015-Apr-29 13:33N 40°45' E 013°54'0 0.0
2015-Apr-29 12:33N 40°45' E 013°54'2 2.0
2015-Apr-29 11:34N 40°46' E 013°57'7 6.8
2015-Apr-29 10:34N 40°47' E 014°06'3 2.9
2015-Apr-29 09:33N 40°49' E 014°07'4 4.0
2015-Apr-29 08:34N 40°46' E 014°04'3 3.3
2015-Apr-29 07:34N 40°46' E 013°60'3 3.0
2015-Apr-29 06:33N 40°46' E 013°56'1 0.1
2015-Apr-28 12:07N 40°45' E 013°54'0 0.0
2015-Apr-28 11:33N 40°45' E 013°54'3 2.9
2015-Apr-28 10:33N 40°46' E 013°58'7 6.5
2015-Apr-28 09:32N 40°48' E 014°06'2 1.6
2015-Apr-28 08:33N 40°49' E 014°07'5 4.8
2015-Apr-28 07:33N 40°46' E 014°03'6 6.4
2015-Apr-28 06:33N 40°45' E 013°54'6 5.9
2015-Apr-28 05:33N 40°46' E 014°02'5 4.9
2015-Apr-28 04:33N 40°49' E 014°07'5 5.0
2015-Apr-28 03:32N 40°46' E 014°02'6 5.7
2015-Apr-28 02:33N 40°45' E 013°54'7 7.5
2015-Apr-28 01:34N 40°46' E 014°04'3 3.3
2015-Apr-28 00:31N 40°49' E 014°06'5 4.9
2015-Apr-27 23:34N 40°46' E 014°02'5 5.5
2015-Apr-27 22:33N 40°45' E 013°54'0 0.0
2015-Apr-27 21:33N 40°45' E 013°54'0 0.0
2015-Apr-27 20:32N 40°45' E 013°54'0 0.0
2015-Apr-27 19:33N 40°45' E 013°54'0 0.0
2015-Apr-27 18:33N 40°45' E 013°54'0 0.0
2015-Apr-27 17:33N 40°45' E 013°54'0 0.0
2015-Apr-27 16:33N 40°45' E 013°54'0 0.0
2015-Apr-27 15:33N 40°45' E 013°54'0 0.0
2015-Apr-27 14:33N 40°45' E 013°54'0 0.0
2015-Apr-27 13:33N 40°45' E 013°54'4 4.3
2015-Apr-27 12:33N 40°46' E 013°60'6 5.9
2015-Apr-27 11:30N 40°49' E 014°07'5 5.4
2015-Apr-27 10:33N 40°46' E 014°01'4 3.6
2015-Apr-27 09:33N 40°46' E 013°57'8 7.8
2015-Apr-27 08:33N 40°49' E 014°06'1 0.5
2015-Apr-27 07:33N 40°49' E 014°06'7 7.1
2015-Apr-27 06:34N 40°46' E 013°58'3 2.5
2015-Apr-27 05:33N 40°45' E 013°55'7 7.1
2015-Apr-27 04:33N 40°46' E 014°04'2 2.3
2015-Apr-27 03:31N 40°48' E 014°06'7 7.6
2015-Apr-27 02:33N 40°46' E 013°57'2 1.8
2015-Apr-27 01:33N 40°46' E 013°59'6 5.7
2015-Apr-27 00:33N 40°48' E 014°06'2 2.3
2015-Apr-26 23:33N 40°46' E 014°05'8 7.8
2015-Apr-26 22:33N 40°45' E 013°54'0 0.0
2015-Apr-26 21:33N 40°45' E 013°54'0 0.0
2015-Apr-26 20:33N 40°45' E 013°54'0 0.0
2015-Apr-26 19:32N 40°45' E 013°54'0 0.0
2015-Apr-26 18:34N 40°45' E 013°54'0 0.0
2015-Apr-26 17:33N 40°45' E 013°54'0 0.0
2015-Apr-26 16:33N 40°45' E 013°54'0 0.0
2015-Apr-26 15:33N 40°45' E 013°54'0 0.0
2015-Apr-26 14:33N 40°45' E 013°54'0 0.0
2015-Apr-26 13:33N 40°45' E 013°54'0 0.0
2015-Apr-26 12:34N 40°45' E 013°54'0 0.0
2015-Apr-26 11:33N 40°45' E 013°54'0 0.0
2015-Apr-26 10:33N 40°45' E 013°54'0 0.0
2015-Apr-26 09:33N 40°45' E 013°54'0 0.0
2015-Apr-26 08:33N 40°45' E 013°54'0 0.0
2015-Apr-26 07:33N 40°45' E 013°54'0 0.0
2015-Apr-26 06:33N 40°45' E 013°54'0 0.0
2015-Apr-26 05:33N 40°45' E 013°54'0 0.0
2015-Apr-26 04:33N 40°45' E 013°54'0 0.0
2015-Apr-26 03:33N 40°45' E 013°54'0 0.0
2015-Apr-26 02:34N 40°45' E 013°54'0 0.0
2015-Apr-26 01:32N 40°45' E 013°54'0 0.0
2015-Apr-26 00:33N 40°45' E 013°54'0 0.0
2015-Apr-25 23:33N 40°45' E 013°54'0 0.0
2015-Apr-25 22:33N 40°45' E 013°54'0 0.0
2015-Apr-25 21:33N 40°45' E 013°54'0 0.0
2015-Apr-25 20:33N 40°45' E 013°54'0 0.0
2015-Apr-25 19:33N 40°45' E 013°54'0 0.0
2015-Apr-25 18:33N 40°45' E 013°54'0 0.0
2015-Apr-25 17:33N 40°45' E 013°54'0 0.0
2015-Apr-25 16:34N 40°45' E 013°54'0 0.0
2015-Apr-25 15:33N 40°45' E 013°54'0 0.0
2015-Apr-25 14:33N 40°45' E 013°54'0 0.0
2015-Apr-25 13:33N 40°45' E 013°54'0 0.0
2015-Apr-25 12:33N 40°45' E 013°54'0 0.0
2015-Apr-25 11:33N 40°45' E 013°54'0 0.0
2015-Apr-25 10:33N 40°45' E 013°54'0 0.0
2015-Apr-25 09:33N 40°45' E 013°54'1 1.1
2015-Apr-25 08:33N 40°45' E 013°56'8 8.1
2015-Apr-25 07:33N 40°48' E 014°06'2 1.8
2015-Apr-25 06:33N 40°46' E 014°05'8 8.1
2015-Apr-25 05:33N 40°45' E 013°54'6 6.1
2015-Apr-25 04:33N 40°46' E 014°02'5 4.7
2015-Apr-25 03:33N 40°49' E 014°07'6 6.3
2015-Apr-25 02:33N 40°47' E 013°60'3 2.6
2015-Apr-25 01:33N 40°46' E 013°56'7 7.1
2015-Apr-25 00:33N 40°47' E 014°06'0 0.4
2015-Apr-24 23:32N 40°46' E 014°05'8 8.2
2015-Apr-24 22:33N 40°45' E 013°55'0 0.3
2015-Apr-24 21:33N 40°45' E 013°54'0 0.0
2015-Apr-24 20:32N 40°45' E 013°54'0 0.0
2015-Apr-24 19:33N 40°45' E 013°54'0 0.0
2015-Apr-24 18:33N 40°45' E 013°54'0 0.0
2015-Apr-24 17:33N 40°45' E 013°54'0 0.0
2015-Apr-24 16:33N 40°45' E 013°54'0 0.0
2015-Apr-24 15:33N 40°45' E 013°54'0 0.0
2015-Apr-24 14:33N 40°45' E 013°54'0 0.0
2015-Apr-24 13:33N 40°45' E 013°54'6 6.2
2015-Apr-24 12:33N 40°47' E 014°02'4 3.6
2015-Apr-24 11:33N 40°49' E 014°06'6 6.3
2015-Apr-24 10:33N 40°46' E 013°59'0 0.4
2015-Apr-24 09:33N 40°46' E 013°59'7 6.8
2015-Apr-24 08:33N 40°49' E 014°07'4 4.0
2015-Apr-24 07:33N 40°46' E 014°04'7 7.0
2015-Apr-24 06:33N 40°45' E 013°54'5 5.4
2015-Apr-24 05:33N 40°46' E 014°01'5 4.6
2015-Apr-24 04:33N 40°49' E 014°06'1 1.1
2015-Apr-24 03:32N 40°48' E 014°06'8 7.8
2015-Apr-24 02:33N 40°46' E 013°57'3 2.9
2015-Apr-24 01:33N 40°46' E 014°00'6 5.7
2015-Apr-24 00:33N 40°49' E 014°07'5 4.8
2015-Apr-23 23:32N 40°46' E 014°02'6 5.8
2015-Apr-23 22:33N 40°45' E 013°55'0 0.1
2015-Apr-23 21:33N 40°45' E 013°54'0 0.0
2015-Apr-23 20:33N 40°45' E 013°54'0 0.0
2015-Apr-23 19:30N 40°45' E 013°54'0 0.0
2015-Apr-23 18:33N 40°45' E 013°54'0 0.0
2015-Apr-23 17:33N 40°45' E 013°54'0 0.0
2015-Apr-23 16:33N 40°45' E 013°54'0 0.0
2015-Apr-23 15:33N 40°45' E 013°54'0 0.0
2015-Apr-23 14:33N 40°45' E 013°54'0 0.0
2015-Apr-23 13:33N 40°45' E 013°54'0 0.0
2015-Apr-23 12:34N 40°45' E 013°54'0 0.0
2015-Apr-23 11:33N 40°45' E 013°54'0 0.0
2015-Apr-23 10:33N 40°45' E 013°54'3 3.1
2015-Apr-23 09:33N 40°46' E 013°58'6 5.5
2015-Apr-23 08:33N 40°47' E 014°06'2 2.5
2015-Apr-23 07:33N 40°49' E 014°06'5 5.0
2015-Apr-23 06:33N 40°46' E 014°01'3 3.0
2015-Apr-23 05:33N 40°46' E 013°57'8 7.7
2015-Apr-23 04:33N 40°48' E 014°06'2 1.6
2015-Apr-23 03:33N 40°47' E 014°06'9 8.5
2015-Apr-23 02:33N 40°45' E 013°55'5 4.9
2015-Apr-23 01:33N 40°47' E 014°01'5 5.3
2015-Apr-23 00:34N 40°49' E 014°07'4 3.9
2015-Apr-22 23:33N 40°47' E 014°03'7 6.7
2015-Apr-22 22:33N 40°45' E 013°54'0 0.0
2015-Apr-22 13:07N 40°45' E 013°54'0 0.0
2015-Apr-22 12:33N 40°45' E 013°54'0 0.0
2015-Apr-22 11:33N 40°45' E 013°54'5 5.4
2015-Apr-22 10:33N 40°46' E 014°02'  

Dump ship's entire track history